createdAt,value
2018-03-15T00:00:00.649Z,998.96
2018-03-15T00:00:37.360Z,998.94
2018-03-15T00:01:12.717Z,998.91
2018-03-15T00:01:48.510Z,998.95
2018-03-15T00:02:24.683Z,998.91
2018-03-15T00:03:01.722Z,998.91
2018-03-15T00:03:37.145Z,998.89
2018-03-15T00:04:12.502Z,998.88
2018-03-15T00:04:50.953Z,998.85
2018-03-15T00:05:26.194Z,998.76
2018-03-15T00:06:01.292Z,998.76
2018-03-15T00:06:38.834Z,998.75
2018-03-15T00:07:14.182Z,998.75
2018-03-15T00:07:49.392Z,998.73
2018-03-15T00:08:24.743Z,998.72
2018-03-15T00:09:01.259Z,998.73
2018-03-15T00:09:36.795Z,998.70
2018-03-15T00:10:12.121Z,998.70
2018-03-15T00:10:50.775Z,998.66
2018-03-15T00:11:26.213Z,998.65
2018-03-15T00:12:01.655Z,998.62
2018-03-15T00:12:37.308Z,998.63
2018-03-15T00:13:12.978Z,998.62
2018-03-15T00:13:48.409Z,998.64
2018-03-15T00:14:23.632Z,998.60
2018-03-15T00:14:59.275Z,998.62
2018-03-15T00:15:34.695Z,998.62
2018-03-15T00:16:10.048Z,998.62
2018-03-15T00:16:45.581Z,998.60
2018-03-15T00:17:22.621Z,998.54
2018-03-15T00:17:57.877Z,998.48
2018-03-15T00:18:33.112Z,998.50
2018-03-15T00:19:09.192Z,998.50
2018-03-15T00:19:44.740Z,998.52
2018-03-15T00:20:20.169Z,998.51
2018-03-15T00:20:57.691Z,998.49
2018-03-15T00:21:33.046Z,998.52
2018-03-15T00:22:08.351Z,998.49
2018-03-15T00:22:43.589Z,998.52
2018-03-15T00:23:19.150Z,998.52
2018-03-15T00:23:54.797Z,998.50
2018-03-15T00:24:30.521Z,998.46
2018-03-15T00:25:05.748Z,998.48
2018-03-15T00:25:41.098Z,998.41
2018-03-15T00:26:16.524Z,998.49
2018-03-15T00:26:52.783Z,998.51
2018-03-15T00:27:28.112Z,998.44
2018-03-15T00:28:03.374Z,998.46
2018-03-15T00:28:38.708Z,998.46
2018-03-15T00:29:14.239Z,998.46
2018-03-15T00:29:49.452Z,998.39
2018-03-15T00:30:24.979Z,998.35
2018-03-15T00:31:00.206Z,998.35
2018-03-15T00:31:35.629Z,998.36
2018-03-15T00:32:11.557Z,998.34
2018-03-15T00:32:47.206Z,998.36
2018-03-15T00:33:22.771Z,998.36
2018-03-15T00:33:58.182Z,998.35
2018-03-15T00:34:33.414Z,998.33
2018-03-15T00:35:08.566Z,998.34
2018-03-15T00:35:46.006Z,998.35
2018-03-15T00:36:21.231Z,998.33
2018-03-15T00:36:56.947Z,998.35
2018-03-15T00:37:32.480Z,998.34
2018-03-15T00:38:08.142Z,998.33
2018-03-15T00:38:44.297Z,998.35
2018-03-15T00:39:19.640Z,998.38
2018-03-15T00:39:55.323Z,998.40
2018-03-15T00:40:30.626Z,998.34
2018-03-15T00:41:05.765Z,998.34
2018-03-15T00:41:40.978Z,998.33
2018-03-15T00:42:16.425Z,998.29
2018-03-15T00:42:55.674Z,998.32
2018-03-15T00:43:30.836Z,998.36
2018-03-15T00:44:06.260Z,998.35
2018-03-15T00:44:42.579Z,998.30
2018-03-15T00:45:18.830Z,998.31
2018-03-15T00:45:56.459Z,998.35
2018-03-15T00:46:34.909Z,998.29
2018-03-15T00:47:10.567Z,998.29
2018-03-15T00:47:51.418Z,998.29
2018-03-15T00:48:27.170Z,998.26
2018-03-15T00:49:02.336Z,998.28
2018-03-15T00:49:37.374Z,998.27
2018-03-15T00:50:12.977Z,998.28
2018-03-15T00:50:48.836Z,998.24
2018-03-15T00:51:23.962Z,998.25
2018-03-15T00:52:00.393Z,998.27
2018-03-15T00:52:36.254Z,998.26
2018-03-15T00:53:11.698Z,998.24
2018-03-15T00:53:47.110Z,998.28
2018-03-15T00:54:22.642Z,998.26
2018-03-15T00:54:57.989Z,998.23
2018-03-15T00:55:33.625Z,998.23
2018-03-15T00:56:08.763Z,998.22
2018-03-15T00:56:43.963Z,998.25
2018-03-15T00:57:19.643Z,998.22
2018-03-15T00:57:55.591Z,998.23
2018-03-15T00:58:31.141Z,998.17
2018-03-15T00:59:06.678Z,998.18
2018-03-15T00:59:42.377Z,998.20
2018-03-15T01:00:17.623Z,998.17
2018-03-15T01:00:56.053Z,998.17
2018-03-15T01:01:32.887Z,998.19
2018-03-15T01:02:08.708Z,998.19
2018-03-15T01:02:43.950Z,998.18
2018-03-15T01:03:19.476Z,998.15
2018-03-15T01:03:55.098Z,998.18
2018-03-15T01:04:30.347Z,998.16
2018-03-15T01:05:05.665Z,998.19
2018-03-15T01:05:41.212Z,998.14
2018-03-15T01:06:16.714Z,998.11
2018-03-15T01:06:51.957Z,998.10
2018-03-15T01:07:27.561Z,998.10
2018-03-15T01:08:02.938Z,998.07
2018-03-15T01:08:38.063Z,998.09
2018-03-15T01:09:13.993Z,998.09
2018-03-15T01:09:49.522Z,998.08
2018-03-15T01:10:25.088Z,998.11
2018-03-15T01:11:00.596Z,998.07
2018-03-15T01:11:36.039Z,998.10
2018-03-15T01:12:11.261Z,998.07
2018-03-15T01:12:46.715Z,998.06
2018-03-15T01:13:21.937Z,998.08
2018-03-15T01:13:57.960Z,998.07
2018-03-15T01:14:33.297Z,998.06
2018-03-15T01:15:08.631Z,998.06
2018-03-15T01:15:46.871Z,998.04
2018-03-15T01:16:22.539Z,998.10
2018-03-15T01:16:57.835Z,998.03
2018-03-15T01:17:33.405Z,998.04
2018-03-15T01:18:09.198Z,998.08
2018-03-15T01:18:45.758Z,998.07
2018-03-15T01:19:21.257Z,998.05
2018-03-15T01:19:57.238Z,998.05
2018-03-15T01:20:32.745Z,998.03
2018-03-15T01:21:07.897Z,998.07
2018-03-15T01:21:43.354Z,998.07
2018-03-15T01:22:18.586Z,998.01
2018-03-15T01:22:56.352Z,998.03
2018-03-15T01:23:32.056Z,998.04
2018-03-15T01:24:07.219Z,997.98
2018-03-15T01:24:43.335Z,997.98
2018-03-15T01:25:18.775Z,998.03
2018-03-15T01:25:56.496Z,998.01
2018-03-15T01:26:31.976Z,997.99
2018-03-15T01:27:07.315Z,997.98
2018-03-15T01:27:46.034Z,998.02
2018-03-15T01:28:21.387Z,998.00
2018-03-15T01:28:56.936Z,997.97
2018-03-15T01:29:32.124Z,997.95
2018-03-15T01:30:07.449Z,998.01
2018-03-15T01:30:46.286Z,997.93
2018-03-15T01:31:24.119Z,997.93
2018-03-15T01:32:03.168Z,997.92
2018-03-15T01:32:42.234Z,997.91
2018-03-15T01:33:17.854Z,997.96
2018-03-15T01:33:54.688Z,997.93
2018-03-15T01:34:30.112Z,997.89
2018-03-15T01:35:05.772Z,997.83
2018-03-15T01:35:41.174Z,997.90
2018-03-15T01:36:16.602Z,997.85
2018-03-15T01:36:52.114Z,997.82
2018-03-15T01:37:27.704Z,997.85
2018-03-15T01:38:03.094Z,997.83
2018-03-15T01:38:38.424Z,997.82
2018-03-15T01:39:13.484Z,997.85
2018-03-15T01:39:48.703Z,997.83
2018-03-15T01:40:24.128Z,997.82
2018-03-15T01:40:59.558Z,997.75
2018-03-15T01:41:35.326Z,997.78
2018-03-15T01:42:11.330Z,997.77
2018-03-15T01:42:46.488Z,997.73
2018-03-15T01:43:21.919Z,997.72
2018-03-15T01:43:57.363Z,997.71
2018-03-15T01:44:32.916Z,997.70
2018-03-15T01:45:08.774Z,997.69
2018-03-15T01:45:45.412Z,997.71
2018-03-15T01:46:20.861Z,997.72
2018-03-15T01:46:56.409Z,997.69
2018-03-15T01:47:31.791Z,997.66
2018-03-15T01:48:07.313Z,997.67
2018-03-15T01:48:43.122Z,997.66
2018-03-15T01:49:18.472Z,997.63
2018-03-15T01:49:54.499Z,997.62
2018-03-15T01:50:29.935Z,997.65
2018-03-15T01:51:05.147Z,997.61
2018-03-15T01:51:40.382Z,997.63
2018-03-15T01:52:17.054Z,997.57
2018-03-15T01:52:55.431Z,997.60
2018-03-15T01:53:30.989Z,997.60
2018-03-15T01:54:06.234Z,997.63
2018-03-15T01:54:42.580Z,997.58
2018-03-15T01:55:18.088Z,997.58
2018-03-15T01:55:53.531Z,997.58
2018-03-15T01:56:28.961Z,997.54
2018-03-15T01:57:04.808Z,997.53
2018-03-15T01:57:41.059Z,997.58
2018-03-15T01:58:16.386Z,997.53
2018-03-15T01:58:51.880Z,997.53
2018-03-15T01:59:27.062Z,997.51
2018-03-15T02:00:02.525Z,997.45
2018-03-15T02:00:42.421Z,997.45
2018-03-15T02:01:20.383Z,997.56
2018-03-15T02:01:55.953Z,997.53
2018-03-15T02:02:31.466Z,997.42
2018-03-15T02:03:07.155Z,997.51
2018-03-15T02:03:43.180Z,997.45
2018-03-15T02:04:18.712Z,997.43
2018-03-15T02:04:56.909Z,997.45
2018-03-15T02:05:32.468Z,997.45
2018-03-15T02:06:07.805Z,997.37
2018-03-15T02:06:43.685Z,997.47
2018-03-15T02:07:19.287Z,997.47
2018-03-15T02:07:56.132Z,997.41
2018-03-15T02:08:31.564Z,997.41
2018-03-15T02:09:06.973Z,997.41
2018-03-15T02:09:42.339Z,997.40
2018-03-15T02:10:18.136Z,997.40
2018-03-15T02:10:54.459Z,997.42
2018-03-15T02:11:29.972Z,997.39
2018-03-15T02:12:05.439Z,997.43
2018-03-15T02:12:42.572Z,997.40
2018-03-15T02:13:18.296Z,997.38
2018-03-15T02:13:53.535Z,997.37
2018-03-15T02:14:29.073Z,997.36
2018-03-15T02:15:04.317Z,997.37
2018-03-15T02:15:43.340Z,997.37
2018-03-15T02:16:18.890Z,997.34
2018-03-15T02:16:59.120Z,997.42
2018-03-15T02:17:34.395Z,997.37
2018-03-15T02:18:10.050Z,997.35
2018-03-15T02:18:45.879Z,997.33
2018-03-15T02:19:21.420Z,997.37
2018-03-15T02:19:56.970Z,997.35
2018-03-15T02:20:32.493Z,997.30
2018-03-15T02:21:08.100Z,997.33
2018-03-15T02:21:45.271Z,997.35
2018-03-15T02:22:20.606Z,997.34
2018-03-15T02:22:56.180Z,997.32
2018-03-15T02:23:31.595Z,997.35
2018-03-15T02:24:06.913Z,997.33
2018-03-15T02:24:42.357Z,997.27
2018-03-15T02:25:17.790Z,997.23
2018-03-15T02:25:54.941Z,997.26
2018-03-15T02:26:30.390Z,997.26
2018-03-15T02:27:06.618Z,997.26
2018-03-15T02:27:42.605Z,997.23
2018-03-15T02:28:18.525Z,997.27
2018-03-15T02:28:53.983Z,997.22
2018-03-15T02:29:29.283Z,997.22
2018-03-15T02:30:04.448Z,997.22
2018-03-15T02:30:42.050Z,997.29
2018-03-15T02:31:17.534Z,997.31
2018-03-15T02:31:53.287Z,997.22
2018-03-15T02:32:28.809Z,997.26
2018-03-15T02:33:04.331Z,997.19
2018-03-15T02:33:40.089Z,997.19
2018-03-15T02:34:15.425Z,997.17
2018-03-15T02:34:52.039Z,997.18
2018-03-15T02:35:27.301Z,997.19
2018-03-15T02:36:02.890Z,997.15
2018-03-15T02:36:39.325Z,997.13
2018-03-15T02:37:14.785Z,997.15
2018-03-15T02:37:50.852Z,997.13
2018-03-15T02:38:26.254Z,997.12
2018-03-15T02:39:01.977Z,997.12
2018-03-15T02:39:37.342Z,997.13
2018-03-15T02:40:12.763Z,997.16
2018-03-15T02:40:49.912Z,997.19
2018-03-15T02:41:25.311Z,997.09
2018-03-15T02:42:00.677Z,997.16
2018-03-15T02:42:36.486Z,997.13
2018-03-15T02:43:12.268Z,997.13
2018-03-15T02:43:47.692Z,997.13
2018-03-15T02:44:23.023Z,997.14
2018-03-15T02:44:58.359Z,997.12
2018-03-15T02:45:34.026Z,997.15
2018-03-15T02:46:09.339Z,997.23
2018-03-15T02:46:45.155Z,997.19
2018-03-15T02:47:20.988Z,997.16
2018-03-15T02:47:56.317Z,997.13
2018-03-15T02:48:31.920Z,997.18
2018-03-15T02:49:07.553Z,997.19
2018-03-15T02:49:43.866Z,997.20
2018-03-15T02:50:19.055Z,997.21
2018-03-15T02:50:54.859Z,997.17
2018-03-15T02:51:30.068Z,997.18
2018-03-15T02:52:05.769Z,997.12
2018-03-15T02:52:42.702Z,997.11
2018-03-15T02:53:17.915Z,997.12
2018-03-15T02:53:53.213Z,997.14
2018-03-15T02:54:28.512Z,997.17
2018-03-15T02:55:03.824Z,997.13
2018-03-15T02:55:39.829Z,997.10
2018-03-15T02:56:15.147Z,997.09
2018-03-15T02:56:50.439Z,997.14
2018-03-15T02:57:25.672Z,997.11
2018-03-15T02:58:01.152Z,997.09
2018-03-15T02:58:36.642Z,997.16
2018-03-15T02:59:12.054Z,997.10
2018-03-15T02:59:47.800Z,997.07
2018-03-15T03:00:23.099Z,997.09
2018-03-15T03:01:01.611Z,997.17
2018-03-15T03:01:37.329Z,997.12
2018-03-15T03:02:12.612Z,997.12
2018-03-15T03:02:49.203Z,997.11
2018-03-15T03:03:24.735Z,997.08
2018-03-15T03:04:00.032Z,997.08
2018-03-15T03:04:35.553Z,997.08
2018-03-15T03:05:10.794Z,997.05
2018-03-15T03:05:46.623Z,997.08
2018-03-15T03:06:21.817Z,997.06
2018-03-15T03:06:57.714Z,997.05
2018-03-15T03:07:33.031Z,996.98
2018-03-15T03:08:08.654Z,997.03
2018-03-15T03:08:43.977Z,997.00
2018-03-15T03:09:19.395Z,997.01
2018-03-15T03:09:54.727Z,996.97
2018-03-15T03:10:29.922Z,996.99
2018-03-15T03:11:08.340Z,996.94
2018-03-15T03:11:44.154Z,996.91
2018-03-15T03:12:19.687Z,996.92
2018-03-15T03:12:55.193Z,996.88
2018-03-15T03:13:30.599Z,996.95
2018-03-15T03:14:05.905Z,996.88
2018-03-15T03:14:41.435Z,997.03
2018-03-15T03:15:17.056Z,996.94
2018-03-15T03:15:52.645Z,996.94
2018-03-15T03:16:27.889Z,996.91
2018-03-15T03:17:03.368Z,996.88
2018-03-15T03:17:40.206Z,996.94
2018-03-15T03:18:15.543Z,996.88
2018-03-15T03:18:51.486Z,996.92
2018-03-15T03:19:27.067Z,996.97
2018-03-15T03:20:02.600Z,996.93
2018-03-15T03:20:38.360Z,996.96
2018-03-15T03:21:14.080Z,996.95
2018-03-15T03:21:49.518Z,996.88
2018-03-15T03:22:24.921Z,996.94
2018-03-15T03:23:00.247Z,996.88
2018-03-15T03:23:35.889Z,996.89
2018-03-15T03:24:11.391Z,996.90
2018-03-15T03:24:46.558Z,996.91
2018-03-15T03:25:21.990Z,996.87
2018-03-15T03:25:57.383Z,996.87
2018-03-15T03:26:32.731Z,996.93
2018-03-15T03:27:08.158Z,996.90
2018-03-15T03:27:46.064Z,996.87
2018-03-15T03:28:21.393Z,996.85
2018-03-15T03:28:57.496Z,996.85
2018-03-15T03:29:32.917Z,996.87
2018-03-15T03:30:10.104Z,996.87
2018-03-15T03:30:50.838Z,996.87
2018-03-15T03:31:29.270Z,996.82
2018-03-15T03:32:04.741Z,996.82
2018-03-15T03:32:40.060Z,996.97
2018-03-15T03:33:15.368Z,996.85
2018-03-15T03:33:50.794Z,996.82
2018-03-15T03:34:26.300Z,996.87
2018-03-15T03:35:01.530Z,996.87
2018-03-15T03:35:37.319Z,996.88
2018-03-15T03:36:12.647Z,996.80
2018-03-15T03:36:48.253Z,996.92
2018-03-15T03:37:23.565Z,996.90
2018-03-15T03:38:00.149Z,996.88
2018-03-15T03:38:35.599Z,996.83
2018-03-15T03:39:11.260Z,996.84
2018-03-15T03:39:47.086Z,996.81
2018-03-15T03:40:22.631Z,996.81
2018-03-15T03:40:57.913Z,996.82
2018-03-15T03:41:33.743Z,996.81
2018-03-15T03:42:09.142Z,996.79
2018-03-15T03:42:46.669Z,996.85
2018-03-15T03:43:21.938Z,996.77
2018-03-15T03:43:58.742Z,996.85
2018-03-15T03:44:34.153Z,996.79
2018-03-15T03:45:09.538Z,996.72
2018-03-15T03:45:45.380Z,996.87
2018-03-15T03:46:20.703Z,996.81
2018-03-15T03:46:55.993Z,996.78
2018-03-15T03:47:31.753Z,996.78
2018-03-15T03:48:07.120Z,996.71
2018-03-15T03:48:42.532Z,996.71
2018-03-15T03:49:18.032Z,996.84
2018-03-15T03:49:53.541Z,996.69
2018-03-15T03:50:28.862Z,996.69
2018-03-15T03:51:05.294Z,996.68
2018-03-15T03:51:40.906Z,996.70
2018-03-15T03:52:16.266Z,996.72
2018-03-15T03:52:51.598Z,996.67
2018-03-15T03:53:27.136Z,996.75
2018-03-15T03:54:02.650Z,996.72
2018-03-15T03:54:38.163Z,996.67
2018-03-15T03:55:13.695Z,996.63
2018-03-15T03:55:52.519Z,996.63
2018-03-15T03:56:27.919Z,996.54
2018-03-15T03:57:03.600Z,996.55
2018-03-15T03:57:39.300Z,996.62
2018-03-15T03:58:14.444Z,996.58
2018-03-15T03:58:50.056Z,996.55
2018-03-15T03:59:25.354Z,996.58
2018-03-15T04:00:00.770Z,996.55
2018-03-15T04:00:37.098Z,996.61
2018-03-15T04:01:12.408Z,996.53
2018-03-15T04:01:50.558Z,996.53
2018-03-15T04:02:26.062Z,996.56
2018-03-15T04:03:01.333Z,996.60
2018-03-15T04:03:37.947Z,996.51
2018-03-15T04:04:13.474Z,996.55
2018-03-15T04:04:49.087Z,996.48
2018-03-15T04:05:24.422Z,996.50
2018-03-15T04:05:59.962Z,996.45
2018-03-15T04:06:35.173Z,996.51
2018-03-15T04:07:11.386Z,996.48
2018-03-15T04:07:47.312Z,996.56
2018-03-15T04:08:22.869Z,996.45
2018-03-15T04:08:58.695Z,996.52
2018-03-15T04:09:33.997Z,996.57
2018-03-15T04:10:09.146Z,996.50
2018-03-15T04:10:46.789Z,996.44
2018-03-15T04:11:22.077Z,996.48
2018-03-15T04:11:57.415Z,996.45
2018-03-15T04:12:32.733Z,996.45
2018-03-15T04:13:07.929Z,996.39
2018-03-15T04:13:43.768Z,996.44
2018-03-15T04:14:19.064Z,996.41
2018-03-15T04:14:55.398Z,996.39
2018-03-15T04:15:30.789Z,996.35
2018-03-15T04:16:06.028Z,996.35
2018-03-15T04:16:42.120Z,996.36
2018-03-15T04:17:17.863Z,996.39
2018-03-15T04:17:53.031Z,996.40
2018-03-15T04:18:28.294Z,996.37
2018-03-15T04:19:03.650Z,996.26
2018-03-15T04:19:38.825Z,996.31
2018-03-15T04:20:14.129Z,996.28
2018-03-15T04:20:49.553Z,996.33
2018-03-15T04:21:24.868Z,996.32
2018-03-15T04:22:00.658Z,996.42
2018-03-15T04:22:35.892Z,996.33
2018-03-15T04:23:13.900Z,996.43
2018-03-15T04:23:49.457Z,996.38
2018-03-15T04:24:25.267Z,996.43
2018-03-15T04:25:01.691Z,996.39
2018-03-15T04:25:42.111Z,996.37
2018-03-15T04:26:20.836Z,996.46
2018-03-15T04:26:57.176Z,996.37
2018-03-15T04:27:32.681Z,996.41
2018-03-15T04:28:08.816Z,996.34
2018-03-15T04:28:44.196Z,996.37
2018-03-15T04:29:19.355Z,996.38
2018-03-15T04:29:54.964Z,996.33
2018-03-15T04:30:30.291Z,996.37
2018-03-15T04:31:05.830Z,996.31
2018-03-15T04:31:41.527Z,996.31
2018-03-15T04:32:16.978Z,996.33
2018-03-15T04:32:52.683Z,996.40
2018-03-15T04:33:28.011Z,996.32
2018-03-15T04:34:05.397Z,996.35
2018-03-15T04:34:42.132Z,996.25
2018-03-15T04:35:17.719Z,996.36
2018-03-15T04:35:53.035Z,996.28
2018-03-15T04:36:28.492Z,996.30
2018-03-15T04:37:03.591Z,996.35
2018-03-15T04:37:42.511Z,996.31
2018-03-15T04:38:17.936Z,996.31
2018-03-15T04:38:55.569Z,996.31
2018-03-15T04:39:30.642Z,996.32
2018-03-15T04:40:05.972Z,996.35
2018-03-15T04:40:44.681Z,996.30
2018-03-15T04:41:19.803Z,996.31
2018-03-15T04:41:54.937Z,996.29
2018-03-15T04:42:30.336Z,996.33
2018-03-15T04:43:07.384Z,996.30
2018-03-15T04:43:42.610Z,996.26
2018-03-15T04:44:17.944Z,996.28
2018-03-15T04:44:55.669Z,996.29
2018-03-15T04:45:30.988Z,996.27
2018-03-15T04:46:09.696Z,996.24
2018-03-15T04:46:45.213Z,996.26
2018-03-15T04:47:20.530Z,996.23
2018-03-15T04:47:57.523Z,996.16
2018-03-15T04:48:33.325Z,996.28
2018-03-15T04:49:08.941Z,996.16
2018-03-15T04:49:44.471Z,996.23
2018-03-15T04:50:19.874Z,996.18
2018-03-15T04:50:56.550Z,996.16
2018-03-15T04:51:33.176Z,996.21
2018-03-15T04:52:11.193Z,996.19
2018-03-15T04:52:46.766Z,996.22
2018-03-15T04:53:22.365Z,996.12
2018-03-15T04:53:57.873Z,996.16
2018-03-15T04:54:34.205Z,996.14
2018-03-15T04:55:11.601Z,996.13
2018-03-15T04:55:48.729Z,996.12
2018-03-15T04:56:24.475Z,996.11
2018-03-15T04:56:59.815Z,996.11
2018-03-15T04:57:35.266Z,996.10
2018-03-15T04:58:12.829Z,996.11
2018-03-15T04:58:48.262Z,996.14
2018-03-15T04:59:23.682Z,996.16
2018-03-15T04:59:58.894Z,996.07
2018-03-15T05:00:36.828Z,996.06
2018-03-15T05:01:14.326Z,996.04
2018-03-15T05:01:49.658Z,996.07
2018-03-15T05:02:27.593Z,996.02
2018-03-15T05:03:03.040Z,996.06
2018-03-15T05:03:38.559Z,996.06
2018-03-15T05:04:13.768Z,996.11
2018-03-15T05:07:29.222Z,995.93
2018-03-15T05:08:04.671Z,995.93
2018-03-15T05:08:45.448Z,995.91
2018-03-15T05:09:23.460Z,995.86
2018-03-15T05:09:59.057Z,995.96
2018-03-15T05:10:34.358Z,995.92
2018-03-15T05:11:11.281Z,995.85
2018-03-15T05:11:46.468Z,995.88
2018-03-15T05:12:22.174Z,995.81
2018-03-15T05:12:57.529Z,995.80
2018-03-15T05:13:33.663Z,995.81
2018-03-15T05:14:09.416Z,995.82
2018-03-15T05:14:46.856Z,995.79
2018-03-15T05:15:22.472Z,995.78
2018-03-15T05:15:58.005Z,995.77
2018-03-15T05:16:33.437Z,995.82
2018-03-15T05:17:08.834Z,995.83
2018-03-15T05:17:45.416Z,995.85
2018-03-15T05:18:20.804Z,995.72
2018-03-15T05:18:56.362Z,995.78
2018-03-15T05:19:31.671Z,995.84
2018-03-15T05:20:07.076Z,995.72
2018-03-15T05:20:44.088Z,995.78
2018-03-15T05:21:19.596Z,995.76
2018-03-15T05:21:54.915Z,995.72
2018-03-15T05:22:30.295Z,995.71
2018-03-15T05:23:05.618Z,995.70
2018-03-15T05:23:42.609Z,995.70
2018-03-15T05:24:18.015Z,995.66
2018-03-15T05:24:53.210Z,995.66
2018-03-15T05:25:28.733Z,995.56
2018-03-15T05:26:04.432Z,995.52
2018-03-15T05:26:39.855Z,995.56
2018-03-15T05:27:15.373Z,995.57
2018-03-15T05:27:50.801Z,995.59
2018-03-15T05:28:26.113Z,995.53
2018-03-15T05:29:01.598Z,995.49
2018-03-15T05:29:37.222Z,995.52
2018-03-15T05:30:12.305Z,995.57
2018-03-15T05:30:48.230Z,995.59
2018-03-15T05:31:23.349Z,995.51
2018-03-15T05:31:59.038Z,995.47
2018-03-15T05:32:34.499Z,995.45
2018-03-15T05:33:11.155Z,995.54
2018-03-15T05:33:46.675Z,995.49
2018-03-15T05:34:22.094Z,995.49
2018-03-15T05:34:57.300Z,995.54
2018-03-15T05:35:32.593Z,995.43
2018-03-15T05:36:07.984Z,995.47
2018-03-15T05:36:44.016Z,995.50
2018-03-15T05:37:19.386Z,995.63
2018-03-15T05:37:55.090Z,995.51
2018-03-15T05:38:30.688Z,995.64
2018-03-15T05:39:05.796Z,995.50
2018-03-15T05:39:41.719Z,995.48
2018-03-15T05:40:17.333Z,995.46
2018-03-15T05:40:55.923Z,995.51
2018-03-15T05:41:31.414Z,995.58
2018-03-15T05:42:06.905Z,995.56
2018-03-15T05:42:46.934Z,995.53
2018-03-15T05:43:25.327Z,995.56
2018-03-15T05:44:02.926Z,995.55
2018-03-15T05:44:44.585Z,995.51
2018-03-15T05:45:19.867Z,995.59
2018-03-15T05:48:34.228Z,995.49
2018-03-15T05:49:09.556Z,995.46
2018-03-15T05:49:45.034Z,995.48
2018-03-15T05:50:20.332Z,995.44
2018-03-15T05:50:55.601Z,995.46
2018-03-15T05:51:31.019Z,995.48
2018-03-15T05:52:06.300Z,995.48
2018-03-15T05:52:42.493Z,995.48
2018-03-15T05:53:17.938Z,995.47
2018-03-15T05:53:53.314Z,995.38
2018-03-15T05:54:28.822Z,995.39
2018-03-15T05:55:04.287Z,995.52
2018-03-15T05:55:40.208Z,995.48
2018-03-15T05:56:15.718Z,995.46
2018-03-15T05:56:51.136Z,995.45
2018-03-15T05:57:26.395Z,995.47
2018-03-15T05:58:02.020Z,995.39
2018-03-15T05:58:37.821Z,995.43
2018-03-15T05:59:13.218Z,995.44
2018-03-15T05:59:50.347Z,995.40
2018-03-15T06:00:25.540Z,995.41
2018-03-15T06:01:02.745Z,995.37
2018-03-15T06:01:38.216Z,995.34
2018-03-15T06:02:13.722Z,995.34
2018-03-15T06:02:48.804Z,995.40
2018-03-15T06:03:24.250Z,995.40
2018-03-15T06:03:59.436Z,995.36
2018-03-15T06:04:36.297Z,995.28
2018-03-15T06:05:11.710Z,995.35
2018-03-15T06:05:47.915Z,995.29
2018-03-15T06:06:23.356Z,995.25
2018-03-15T06:06:58.639Z,995.37
2018-03-15T06:07:34.209Z,995.27
2018-03-15T06:08:09.489Z,995.28
2018-03-15T06:08:44.683Z,995.29
2018-03-15T06:09:20.262Z,995.22
2018-03-15T06:09:55.661Z,995.30
2018-03-15T06:10:30.884Z,995.30
2018-03-15T06:11:06.282Z,995.31
2018-03-15T06:11:41.687Z,995.35
2018-03-15T06:12:17.082Z,995.31
2018-03-15T06:12:52.728Z,995.28
2018-03-15T06:13:28.132Z,995.27
2018-03-15T06:14:03.655Z,995.30
2018-03-15T06:14:39.237Z,995.30
2018-03-15T06:15:14.751Z,995.28
2018-03-15T06:15:50.323Z,995.33
2018-03-15T06:16:25.417Z,995.30
2018-03-15T06:17:00.722Z,995.33
2018-03-15T06:17:36.127Z,995.18
2018-03-15T06:18:11.349Z,995.30
2018-03-15T06:18:47.652Z,995.19
2018-03-15T06:19:23.171Z,995.20
2018-03-15T06:19:58.361Z,995.30
2018-03-15T06:20:33.750Z,995.24
2018-03-15T06:21:09.057Z,995.18
2018-03-15T06:21:44.688Z,995.14
2018-03-15T06:22:19.905Z,995.15
2018-03-15T06:22:55.239Z,995.23
2018-03-15T06:23:30.653Z,995.13
2018-03-15T06:24:06.156Z,995.16
2018-03-15T06:24:41.988Z,995.20
2018-03-15T06:25:17.310Z,995.10
2018-03-15T06:25:58.435Z,995.24
2018-03-15T06:26:33.616Z,995.04
2018-03-15T06:27:09.143Z,995.08
2018-03-15T06:27:45.078Z,995.04
2018-03-15T06:28:20.377Z,994.99
2018-03-15T06:28:55.518Z,995.09
2018-03-15T06:29:30.798Z,995.04
2018-03-15T06:30:06.444Z,995.02
2018-03-15T06:30:45.929Z,994.97
2018-03-15T06:31:21.522Z,995.01
2018-03-15T06:31:57.302Z,995.11
2018-03-15T06:32:33.011Z,995.03
2018-03-15T06:33:08.332Z,995.04
2018-03-15T06:33:43.745Z,995.06
2018-03-15T06:34:25.380Z,994.98
2018-03-15T06:35:00.772Z,995.00
2018-03-15T06:35:36.471Z,995.08
2018-03-15T06:36:11.953Z,994.99
2018-03-15T06:36:47.283Z,995.03
2018-03-15T06:37:22.959Z,995.03
2018-03-15T06:37:58.406Z,995.00
2018-03-15T06:38:33.918Z,995.06
2018-03-15T06:39:09.203Z,995.14
2018-03-15T06:39:44.898Z,995.01
2018-03-15T06:40:20.090Z,995.11
2018-03-15T06:40:55.208Z,994.90
2018-03-15T06:41:30.609Z,994.98
2018-03-15T06:42:05.924Z,995.09
2018-03-15T06:42:41.300Z,994.99
2018-03-15T06:43:17.048Z,995.03
2018-03-15T06:43:52.536Z,994.99
2018-03-15T06:44:27.852Z,994.95
2018-03-15T06:45:04.511Z,994.96
2018-03-15T06:45:42.512Z,995.06
2018-03-15T06:46:17.820Z,995.10
2018-03-15T06:46:53.034Z,995.13
2018-03-15T06:47:28.340Z,994.95
2018-03-15T06:48:03.944Z,994.93
2018-03-15T06:48:39.167Z,994.92
2018-03-15T06:49:14.368Z,994.97
2018-03-15T06:49:49.806Z,995.01
2018-03-15T06:50:25.034Z,995.02
2018-03-15T06:51:00.487Z,995.09
2018-03-15T06:51:35.888Z,994.98
2018-03-15T06:52:11.314Z,995.11
2018-03-15T06:52:46.638Z,995.12
2018-03-15T06:53:22.028Z,995.07
2018-03-15T06:53:57.453Z,995.01
2018-03-15T06:54:32.641Z,995.13
2018-03-15T06:55:07.963Z,995.16
2018-03-15T06:55:43.034Z,995.00
2018-03-15T06:56:18.265Z,995.10
2018-03-15T06:56:53.572Z,995.15
2018-03-15T06:57:28.785Z,995.06
2018-03-15T06:58:06.443Z,995.14
2018-03-15T06:58:41.865Z,995.07
2018-03-15T06:59:17.806Z,995.26
2018-03-15T06:59:53.040Z,995.07
2018-03-15T07:00:28.402Z,995.01
2018-03-15T07:01:06.698Z,995.03
2018-03-15T07:01:42.164Z,995.00
2018-03-15T07:02:17.231Z,995.05
2018-03-15T07:02:53.002Z,995.05
2018-03-15T07:03:28.391Z,994.94
2018-03-15T07:04:03.862Z,995.04
2018-03-15T07:04:42.475Z,995.05
2018-03-15T07:05:17.953Z,994.99
2018-03-15T07:05:53.969Z,994.85
2018-03-15T07:06:29.501Z,994.86
2018-03-15T07:07:04.795Z,994.83
2018-03-15T07:07:40.417Z,994.77
2018-03-15T07:08:15.960Z,994.93
2018-03-15T07:08:51.281Z,994.87
2018-03-15T07:09:26.663Z,994.89
2018-03-15T07:10:02.044Z,994.83
2018-03-15T07:10:38.034Z,994.80
2018-03-15T07:11:13.584Z,994.74
2018-03-15T07:11:49.068Z,994.83
2018-03-15T07:12:24.298Z,994.78
2018-03-15T07:12:59.406Z,994.83
2018-03-15T07:13:35.817Z,994.85
2018-03-15T07:14:09.899Z,994.77
2018-03-15T07:14:45.228Z,994.86
2018-03-15T07:15:20.608Z,994.84
2018-03-15T07:15:57.724Z,994.91
2018-03-15T07:16:33.129Z,994.90
2018-03-15T07:17:08.857Z,994.90
2018-03-15T07:17:44.271Z,994.92
2018-03-15T07:18:19.631Z,994.88
2018-03-15T07:18:54.954Z,994.94
2018-03-15T07:19:30.268Z,994.87
2018-03-15T07:20:05.601Z,994.93
2018-03-15T07:20:41.321Z,994.99
2018-03-15T07:21:16.449Z,994.97
2018-03-15T07:21:51.933Z,994.96
2018-03-15T07:22:27.248Z,994.82
2018-03-15T07:23:02.693Z,994.89
2018-03-15T07:23:38.704Z,994.85
2018-03-15T07:24:13.960Z,994.83
2018-03-15T07:24:51.555Z,994.81
2018-03-15T07:25:26.980Z,994.89
2018-03-15T07:26:02.371Z,994.85
2018-03-15T07:26:37.692Z,994.88
2018-03-15T07:27:13.009Z,994.78
2018-03-15T07:27:48.488Z,994.82
2018-03-15T07:28:24.219Z,994.83
2018-03-15T07:28:59.424Z,994.75
2018-03-15T07:29:34.616Z,994.69
2018-03-15T07:30:10.273Z,994.80
2018-03-15T07:30:45.580Z,994.76
2018-03-15T07:31:20.933Z,994.75
2018-03-15T07:31:56.130Z,994.84